Time;durP1;ratioP1;P1;durP2;ratioP2;P2;SDS_P1;SDS_P2;PMS_P1;PMS_P2;Temp;Humidity;BMP_temperature;BMP_pressure;BME280_temperature;BME280_humidity;BME280_pressure;Samples;Min_cycle;Max_cycle;Signal;HPM_P1;HPM_P2
2022/10/11 14:03:57;;;;;;;3.40;3.20;;;20.60;91.20;;;;;;5088871;28;20970;-67
2022/10/11 14:06:24;;;;;;;4.27;3.90;;;20.40;92.00;;;;;;5089223;28;20525;-65
2022/10/11 14:08:55;;;;;;;4.47;4.07;;;20.30;92.50;;;;;;5089080;28;20474;-66
2022/10/11 14:11:36;;;;;;;5.30;4.90;;;20.20;92.80;;;;;;5089223;28;20435;-67
2022/10/11 14:14:28;;;;;;;4.20;3.80;;;20.20;93.00;;;;;;5088911;28;20521;-67
2022/10/11 14:16:55;;;;;;;4.40;4.00;;;20.20;93.00;;;;;;5101657;22;20590;-70
2022/10/11 14:19:24;;;;;;;3.60;3.40;;;20.20;93.10;;;;;;5068970;28;20490;-71
2022/10/11 14:21:53;;;;;;;4.23;3.80;;;20.20;93.20;;;;;;5068524;28;20486;-71
2022/10/11 14:24:20;;;;;;;3.93;3.63;;;20.30;93.30;;;;;;5068430;28;20448;-72
2022/10/11 14:26:50;;;;;;;5.73;3.70;;;20.30;93.30;;;;;;5068506;28;20658;-73
2022/10/11 14:29:22;;;;;;;4.70;4.40;;;20.30;93.50;;;;;;5068882;28;20493;-72
2022/10/11 14:31:49;;;;;;;4.13;3.83;;;20.30;93.50;;;;;;5068701;28;20443;-72
2022/10/11 14:34:19;;;;;;;3.93;3.63;;;20.30;93.50;;;;;;5068659;28;20448;-75
2022/10/11 14:36:48;;;;;;;4.07;3.70;;;20.40;93.70;;;;;;5068909;28;21066;-71
2022/10/11 14:39:17;;;;;;;3.80;3.60;;;20.40;94.00;;;;;;5068943;28;20523;-73
2022/10/11 14:41:44;;;;;;;3.70;3.40;;;20.40;94.20;;;;;;5068617;28;20530;-71
2022/10/11 14:44:11;;;;;;;4.33;3.97;;;20.40;94.30;;;;;;5068524;28;20479;-72
2022/10/11 14:46:39;;;;;;;3.23;2.93;;;20.40;94.40;;;;;;5067843;28;21016;-71
2022/10/11 14:49:11;;;;;;;3.33;3.13;;;20.50;94.50;;;;;;5068838;28;20447;-72
2022/10/11 14:51:39;;;;;;;3.33;3.13;;;20.50;94.50;;;;;;5068923;28;20452;-72
2022/10/11 14:54:07;;;;;;;3.60;3.30;;;20.50;94.50;;;;;;5068571;28;20530;-71
2022/10/11 14:56:34;;;;;;;3.23;3.03;;;20.50;94.60;;;;;;5068105;28;20473;-70
2022/10/11 14:59:01;;;;;;;3.30;3.00;;;20.50;94.90;;;;;;5067971;28;20476;-69
2022/10/11 15:01:28;;;;;;;3.17;2.90;;;20.60;94.10;;;;;;5067880;28;20607;-72
2022/10/11 15:03:55;;;;;;;3.27;3.00;;;20.60;93.80;;;;;;5067808;28;20565;-73
2022/10/11 15:06:25;;;;;;;4.67;3.33;;;20.60;93.70;;;;;;5067834;28;20558;-73
2022/10/11 15:08:51;;;;;;;5.40;3.20;;;20.60;93.60;;;;;;5068208;28;20454;-74
2022/10/11 15:11:22;;;;;;;2.97;2.77;;;20.60;93.90;;;;;;5067677;28;20865;-67
2022/10/11 15:13:49;;;;;;;2.83;2.63;;;20.60;93.50;;;;;;5061969;28;20535;-71
2022/10/11 15:16:19;;;;;;;4.33;4.03;;;20.60;93.50;;;;;;5054278;28;20606;-71
2022/10/11 15:18:49;;;;;;;3.70;3.40;;;20.60;93.40;;;;;;5054419;28;20454;-68
2022/10/11 15:21:17;;;;;;;3.10;2.90;;;20.60;93.50;;;;;;5059677;28;20967;-73
2022/10/11 15:23:44;;;;;;;5.00;4.60;;;20.60;93.50;;;;;;5056743;28;20487;-72
2022/10/11 15:26:14;;;;;;;3.37;3.17;;;20.60;93.50;;;;;;5054602;28;20496;-72
2022/10/11 15:28:43;;;;;;;3.93;3.60;;;20.60;93.50;;;;;;5054692;28;20498;-72
2022/10/11 15:31:10;;;;;;;3.43;3.23;;;20.60;93.50;;;;;;5054738;28;20518;-70
2022/10/11 15:33:37;;;;;;;3.53;3.23;;;20.60;93.40;;;;;;5054215;28;20480;-70
2022/10/11 15:36:06;;;;;;;3.97;3.43;;;20.60;93.40;;;;;;5054010;28;20546;-69
2022/10/11 15:38:33;;;;;;;3.70;3.40;;;20.60;93.40;;;;;;5038743;28;20527;-67
2022/10/11 15:41:00;;;;;;;3.27;2.97;;;20.60;93.40;;;;;;5054561;28;20487;-73
2022/10/11 15:43:28;;;;;;;3.47;3.27;;;20.60;93.80;;;;;;5053911;28;20565;-74
2022/10/11 15:45:57;;;;;;;3.40;3.20;;;20.70;93.90;;;;;;5053763;28;20464;-69
2022/10/11 15:48:26;;;;;;;2.80;2.60;;;20.70;94.00;;;;;;5053751;28;20813;-69
2022/10/11 15:50:54;;;;;;;3.20;3.00;;;20.70;93.90;;;;;;5054036;28;20523;-73
2022/10/11 15:53:23;;;;;;;3.20;3.00;;;20.70;94.00;;;;;;5053700;28;20452;-71
2022/10/11 15:55:51;;;;;;;3.17;2.97;;;20.70;93.90;;;;;;5053833;28;20456;-67
2022/10/11 15:58:20;;;;;;;3.27;2.83;;;20.70;94.10;;;;;;5053592;28;20452;-67
2022/10/11 16:00:49;;;;;;;3.03;2.83;;;20.70;93.20;;;;;;5053522;28;20451;-66
2022/10/11 16:03:18;;;;;;;3.30;3.10;;;20.70;93.00;;;;;;5053551;28;20476;-66
2022/10/11 16:05:45;;;;;;;3.23;3.03;;;20.70;92.90;;;;;;5053496;28;20450;-66
2022/10/11 16:08:12;;;;;;;3.37;3.17;;;20.70;92.90;;;;;;5053281;28;20444;-66
2022/10/11 16:10:40;;;;;;;3.20;2.93;;;20.70;92.90;;;;;;5053713;28;20535;-68
2022/10/11 16:13:07;;;;;;;2.93;2.70;;;20.70;93.80;;;;;;5053509;28;20440;-65
2022/10/11 16:15:34;;;;;;;2.97;2.80;;;20.70;94.00;;;;;;5053387;28;20798;-66
2022/10/11 16:18:01;;;;;;;3.73;3.17;;;20.70;94.30;;;;;;5050238;28;20448;-68
2022/10/11 16:20:29;;;;;;;3.20;3.10;;;20.70;93.90;;;;;;5049469;28;20531;-64
2022/10/11 16:22:57;;;;;;;2.83;2.63;;;20.70;93.60;;;;;;5053254;28;20487;-68
2022/10/11 16:25:24;;;;;;;3.33;3.10;;;20.70;93.40;;;;;;5053050;28;20495;-67
2022/10/11 16:27:52;;;;;;;3.60;3.30;;;20.70;93.40;;;;;;5054002;28;20536;-70
2022/10/11 16:30:19;;;;;;;4.53;3.70;;;20.70;93.50;;;;;;5053122;28;20889;-69
2022/10/11 16:32:47;;;;;;;5.80;5.20;;;20.70;93.60;;;;;;5053972;28;20595;-67
2022/10/11 16:35:15;;;;;;;4.20;3.87;;;20.80;95.20;;;;;;5054353;28;20844;-68
2022/10/11 16:37:43;;;;;;;4.00;3.60;;;20.90;95.00;;;;;;5053898;28;20465;-67
2022/10/11 16:40:14;;;;;;;3.53;3.30;;;21.00;95.50;;;;;;5054008;28;20530;-68
2022/10/11 16:42:41;;;;;;;4.90;4.50;;;21.00;96.20;;;;;;5054009;28;20487;-68
2022/10/11 16:45:09;;;;;;;4.50;4.10;;;21.00;96.70;;;;;;5053678;28;20445;-67
2022/10/11 16:47:36;;;;;;;5.43;4.33;;;21.10;96.40;;;;;;5053540;28;20526;-66
2022/10/11 16:50:05;;;;;;;4.57;4.17;;;21.10;96.20;;;;;;5054134;28;20523;-70
2022/10/11 16:52:32;;;;;;;7.37;4.73;;;21.10;96.70;;;;;;5052848;28;20452;-69
2022/10/11 16:55:00;;;;;;;4.93;4.53;;;21.10;96.40;;;;;;5054059;28;20959;-70
2022/10/11 16:57:27;;;;;;;4.87;3.90;;;21.10;96.40;;;;;;5052895;28;20486;-69
2022/10/11 16:59:54;;;;;;;5.33;4.80;;;21.10;96.50;;;;;;5053570;28;20495;-68
2022/10/11 17:02:28;;;;;;;3.63;3.30;;;21.10;96.40;;;;;;5053614;28;20448;-69
2022/10/11 17:04:57;;;;;;;5.00;4.13;;;21.10;96.30;;;;;;5053546;28;20513;-68
2022/10/11 17:07:25;;;;;;;3.90;3.60;;;21.10;96.50;;;;;;5054420;28;20464;-68
2022/10/11 17:09:53;;;;;;;6.20;4.17;;;21.20;96.80;;;;;;5053433;28;20783;-70
2022/10/11 17:12:24;;;;;;;6.00;4.20;;;21.20;96.40;;;;;;5053639;28;21267;-67
2022/10/11 17:14:51;;;;;;;6.90;4.93;;;21.20;96.20;;;;;;5053275;28;20444;-68
2022/10/11 17:17:19;;;;;;;5.23;4.60;;;21.30;95.50;;;;;;5053513;28;20472;-66
2022/10/11 17:19:47;;;;;;;5.27;4.33;;;21.20;93.90;;;;;;5053614;28;20445;-69
2022/10/11 17:22:17;;;;;;;4.03;3.63;;;21.20;95.00;;;;;;5053067;28;20456;-69
2022/10/11 17:24:45;;;;;;;4.20;3.83;;;21.20;95.30;;;;;;5053091;28;20480;-68
2022/10/11 17:27:13;;;;;;;4.53;4.17;;;21.20;95.20;;;;;;5053215;28;20544;-69
2022/10/11 17:29:41;;;;;;;3.13;2.80;;;21.20;95.30;;;;;;5052768;28;20440;-66
2022/10/11 17:32:08;;;;;;;3.73;3.40;;;21.20;95.30;;;;;;5053044;28;20531;-68
2022/10/11 17:34:35;;;;;;;4.00;3.50;;;21.20;95.30;;;;;;5052372;28;20872;-67
2022/10/11 17:37:03;;;;;;;6.70;6.17;;;21.20;95.20;;;;;;5052389;28;20553;-68
2022/10/11 17:39:30;;;;;;;4.00;3.70;;;21.20;95.20;;;;;;5052441;28;20440;-68
2022/10/11 17:42:02;;;;;;;5.70;4.97;;;21.20;95.00;;;;;;5052275;28;20790;-67
2022/10/11 17:44:29;;;;;;;4.30;3.90;;;21.20;95.00;;;;;;5051886;28;20487;-68
2022/10/11 17:46:58;;;;;;;4.00;3.67;;;21.20;95.00;;;;;;5052146;28;20504;-66
2022/10/11 17:49:25;;;;;;;4.47;3.50;;;21.20;94.80;;;;;;5052292;28;20480;-67
2022/10/11 17:51:51;;;;;;;3.67;3.37;;;21.20;94.80;;;;;;5051729;28;20868;-66
2022/10/11 17:54:18;;;;;;;7.17;4.17;;;21.20;94.80;;;;;;5051948;28;20957;-65
2022/10/11 17:56:45;;;;;;;3.60;3.40;;;21.20;94.90;;;;;;5052181;28;20492;-66
2022/10/11 17:59:16;;;;;;;4.87;3.17;;;21.20;95.10;;;;;;5052873;28;20531;-67
2022/10/11 18:01:43;;;;;;;3.30;3.07;;;21.20;94.70;;;;;;5051421;28;20878;-69
2022/10/11 18:04:15;;;;;;;3.67;3.47;;;21.20;94.60;;;;;;5051777;28;20917;-68
2022/10/11 18:06:43;;;;;;;6.00;4.00;;;21.20;94.30;;;;;;5052773;28;20529;-69
2022/10/11 18:09:12;;;;;;;3.47;3.27;;;21.20;93.90;;;;;;5052877;28;20444;-71
2022/10/11 18:11:39;;;;;;;4.63;4.20;;;21.20;93.90;;;;;;5052592;28;20536;-69
2022/10/11 18:14:05;;;;;;;4.07;3.67;;;21.20;93.90;;;;;;5052212;28;20483;-70
2022/10/11 18:16:33;;;;;;;3.67;3.37;;;21.20;93.70;;;;;;5052365;28;20559;-68
2022/10/11 18:19:02;;;;;;;3.80;2.80;;;21.20;93.70;;;;;;5051795;28;20532;-67
2022/10/11 18:21:30;;;;;;;3.53;2.80;;;21.20;93.60;;;;;;5051448;28;20531;-68
2022/10/11 18:23:58;;;;;;;3.10;2.90;;;21.20;93.60;;;;;;5051679;28;20472;-67
2022/10/11 18:26:25;;;;;;;4.40;3.87;;;21.20;93.40;;;;;;5051944;28;20547;-70
2022/10/11 18:28:54;;;;;;;3.23;2.93;;;21.20;93.40;;;;;;5052135;28;20488;-69
2022/10/11 18:31:22;;;;;;;3.27;3.07;;;21.20;93.30;;;;;;5052440;28;20530;-70
2022/10/11 18:33:50;;;;;;;3.30;3.07;;;21.20;93.50;;;;;;5051160;28;20809;-70
2022/10/11 18:36:19;;;;;;;3.80;3.50;;;21.20;93.40;;;;;;5051583;28;20513;-71
2022/10/11 18:38:51;;;;;;;3.57;3.37;;;21.20;93.10;;;;;;5062806;28;20965;-68
2022/10/11 18:41:20;;;;;;;3.17;2.87;;;21.20;93.30;;;;;;5047203;28;20449;-69
2022/10/11 18:43:51;;;;;;;3.50;3.13;;;21.20;92.90;;;;;;5045613;28;20574;-68
2022/10/11 18:46:19;;;;;;;2.83;2.63;;;21.20;93.00;;;;;;5032237;28;20572;-72
2022/10/11 18:48:47;;;;;;;4.73;3.80;;;21.20;93.00;;;;;;5046392;28;20965;-67
2022/10/11 18:51:18;;;;;;;3.33;3.03;;;21.30;93.20;;;;;;5055651;28;20508;-66
2022/10/11 18:53:45;;;;;;;3.30;3.00;;;21.30;93.10;;;;;;5055483;28;20446;-67
2022/10/11 18:56:15;;;;;;;2.60;2.40;;;21.30;93.20;;;;;;5055248;28;20551;-68
2022/10/11 18:58:43;;;;;;;3.60;3.40;;;21.30;93.40;;;;;;5055660;28;20446;-68
2022/10/11 19:01:14;;;;;;;3.50;3.20;;;21.30;93.30;;;;;;5055924;28;20448;-65
2022/10/11 19:03:41;;;;;;;3.13;2.93;;;21.30;93.30;;;;;;5055297;28;20586;-69
2022/10/11 19:06:15;;;;;;;7.80;3.60;;;21.30;93.30;;;;;;5054986;28;20547;-68
2022/10/11 19:08:42;;;;;;;5.70;2.80;;;21.40;93.60;;;;;;5055276;28;20444;-67
2022/10/11 19:11:11;;;;;;;3.00;2.70;;;21.40;93.40;;;;;;5055251;28;20528;-66
2022/10/11 19:13:40;;;;;;;3.27;3.07;;;21.40;93.50;;;;;;5055022;28;20856;-69
2022/10/11 19:16:09;;;;;;;2.80;2.60;;;21.40;93.40;;;;;;5054430;28;21068;-64
2022/10/11 19:18:36;;;;;;;2.73;2.53;;;21.40;93.40;;;;;;5055115;28;20985;-64
2022/10/11 19:21:04;;;;;;;3.60;3.30;;;21.40;93.30;;;;;;5054760;28;20445;-70
2022/10/11 19:23:34;;;;;;;3.20;2.80;;;21.40;93.30;;;;;;5054780;28;20574;-68
2022/10/11 19:26:02;;;;;;;2.60;2.40;;;21.40;93.20;;;;;;5054357;28;20547;-68
2022/10/11 19:28:29;;;;;;;3.03;2.63;;;21.40;93.00;;;;;;5055243;28;20448;-68
2022/10/11 19:31:03;;;;;;;3.20;3.00;;;21.40;93.10;;;;;;5054229;28;20444;-69
2022/10/11 19:33:31;;;;;;;2.90;2.70;;;21.40;93.00;;;;;;5054181;28;21013;-68
2022/10/11 19:35:59;;;;;;;3.20;2.53;;;21.40;93.00;;;;;;5054808;28;20559;-69
2022/10/11 19:38:26;;;;;;;3.17;2.30;;;21.40;93.00;;;;;;5055821;28;20451;-72
2022/10/11 19:40:53;;;;;;;2.73;2.60;;;21.40;92.80;;;;;;5055223;28;20884;-71
2022/10/11 19:43:20;;;;;;;3.03;2.27;;;21.40;92.80;;;;;;5054682;28;20531;-70
2022/10/11 19:45:46;;;;;;;2.97;2.77;;;21.30;93.00;;;;;;5054875;28;20516;-72
2022/10/11 19:48:15;;;;;;;2.83;2.63;;;21.30;93.10;;;;;;5054967;28;20806;-70
2022/10/11 19:50:41;;;;;;;3.20;2.07;;;21.30;93.10;;;;;;5054854;28;20531;-73
2022/10/11 19:53:09;;;;;;;3.20;3.00;;;21.30;93.30;;;;;;5054164;28;20861;-72
2022/10/11 19:55:36;;;;;;;2.70;2.40;;;21.20;93.20;;;;;;5054533;28;20483;-70
2022/10/11 19:58:03;;;;;;;3.20;2.90;;;21.20;93.20;;;;;;5054621;28;20535;-72
2022/10/11 20:00:30;;;;;;;3.60;3.30;;;21.20;93.10;;;;;;5054685;28;20795;-72
2022/10/11 20:02:57;;;;;;;2.27;2.17;;;21.20;93.00;;;;;;5054223;28;20528;-72
2022/10/11 20:05:25;;;;;;;2.60;2.40;;;21.20;93.00;;;;;;5054168;28;20571;-71
2022/10/11 20:07:52;;;;;;;2.23;2.13;;;21.20;92.80;;;;;;5054326;28;20507;-68
2022/10/11 20:10:18;;;;;;;2.97;2.70;;;21.20;92.90;;;;;;5054505;28;20875;-67
2022/10/11 20:12:45;;;;;;;2.77;2.50;;;21.10;92.40;;;;;;5053891;28;20531;-69
2022/10/11 20:15:12;;;;;;;2.20;2.10;;;21.10;92.40;;;;;;5054232;28;20436;-72
2022/10/11 20:17:48;;;;;;;2.93;2.73;;;21.10;92.40;;;;;;5098979;22;20564;-70
2022/10/11 20:20:17;;;;;;;2.30;2.20;;;21.10;92.50;;;;;;5064851;28;20443;-68
2022/10/11 20:22:45;;;;;;;2.90;2.70;;;21.10;92.40;;;;;;5071191;28;20522;-68
2022/10/11 20:25:12;;;;;;;3.00;2.80;;;21.10;92.30;;;;;;5052826;28;20570;-68
2022/10/11 20:27:41;;;;;;;1.90;1.80;;;21.00;92.50;;;;;;5053125;28;20802;-69
2022/10/11 20:30:09;;;;;;;2.50;2.30;;;21.00;92.40;;;;;;5053306;28;20452;-70
2022/10/11 20:32:35;;;;;;;2.70;2.50;;;21.00;92.30;;;;;;5053072;28;20452;-69
2022/10/11 20:35:02;;;;;;;2.27;2.17;;;21.00;92.30;;;;;;5053023;28;20976;-69
2022/10/11 20:37:29;;;;;;;3.50;3.20;;;21.00;92.20;;;;;;5052892;28;20565;-69
2022/10/11 20:39:57;;;;;;;3.40;3.20;;;21.00;92.20;;;;;;5052850;28;20479;-69
2022/10/11 20:42:24;;;;;;;2.20;2.10;;;21.00;92.10;;;;;;5052714;28;20440;-69
2022/10/11 20:44:51;;;;;;;3.07;2.73;;;21.00;92.00;;;;;;5052643;28;20571;-67
2022/10/11 20:47:18;;;;;;;2.87;2.70;;;21.10;91.80;;;;;;5053055;28;20468;-68
2022/10/11 20:49:45;;;;;;;2.50;2.37;;;21.10;91.80;;;;;;5052870;28;20531;-69
2022/10/11 20:52:11;;;;;;;2.40;2.20;;;21.00;91.60;;;;;;5052845;28;20552;-70
2022/10/11 20:54:40;;;;;;;2.80;2.50;;;21.00;91.90;;;;;;5052783;28;21133;-70
2022/10/11 20:57:08;;;;;;;2.73;2.53;;;21.00;92.20;;;;;;5053370;28;20508;-70
2022/10/11 20:59:35;;;;;;;2.90;2.60;;;21.00;92.20;;;;;;5052852;28;20447;-69
2022/10/11 21:02:02;;;;;;;2.83;2.30;;;21.00;92.00;;;;;;5052379;28;20890;-70
2022/10/11 21:04:29;;;;;;;2.40;2.20;;;21.10;92.00;;;;;;5052443;28;20928;-70
